createdAt,value
2023-03-21T00:01:14.446Z,101094.22
2023-03-21T00:03:44.234Z,101087.41
2023-03-21T00:06:14.403Z,101090.56
2023-03-21T00:08:42.799Z,101092.09
2023-03-21T00:11:12.887Z,101100.25
2023-03-21T00:13:42.406Z,101093.13
2023-03-21T00:16:20.963Z,101083.53
2023-03-21T00:18:58.963Z,101084.88
2023-03-21T00:22:03.704Z,101087.94
2023-03-21T00:24:22.117Z,101074.59
2023-03-21T00:26:51.028Z,101083.31
2023-03-21T00:29:19.243Z,101075.25
2023-03-21T00:31:48.182Z,101079.84
2023-03-21T00:34:22.748Z,101075.59
2023-03-21T00:37:01.703Z,101080.53
2023-03-21T00:39:29.934Z,101070.31
2023-03-21T00:41:58.074Z,101077.66
2023-03-21T00:44:26.317Z,101069.31
2023-03-21T00:47:06.663Z,101074.88
2023-03-21T00:49:38.568Z,101081.94
2023-03-21T00:52:17.110Z,101068.16
2023-03-21T00:54:48.435Z,101068.22
2023-03-21T00:57:16.893Z,101076.88
2023-03-21T00:59:45.242Z,101064.66
2023-03-21T01:02:22.597Z,101060.22
2023-03-21T01:04:52.232Z,101067.22
2023-03-21T01:07:20.540Z,101057.94
2023-03-21T01:09:48.823Z,101061.59
2023-03-21T01:12:17.049Z,101057.25
2023-03-21T01:14:45.222Z,101062.66
2023-03-21T01:17:13.453Z,101053.66
2023-03-21T01:19:51.568Z,101055.31
2023-03-21T01:22:22.190Z,101053.03
2023-03-21T01:24:58.669Z,101052.94
2023-03-21T01:27:31.592Z,101060.03
2023-03-21T01:29:59.873Z,101053.94
2023-03-21T01:32:28.316Z,101057.44
2023-03-21T01:34:56.659Z,101054.78
2023-03-21T01:37:26.602Z,101063.25
2023-03-21T01:39:54.820Z,101059.75
2023-03-21T01:42:23.544Z,101059.16
2023-03-21T01:44:55.406Z,101060.09
2023-03-21T01:47:24.016Z,101057.66
2023-03-21T01:50:06.940Z,101055.97
2023-03-21T01:52:50.016Z,101066.53
2023-03-21T01:55:25.934Z,101051.72
2023-03-21T01:58:12.749Z,101049.88
2023-03-21T02:01:00.769Z,101059.66
2023-03-21T02:03:49.955Z,101050.81
2023-03-21T02:06:35.395Z,101058.09
2023-03-21T02:09:17.842Z,101050.56
2023-03-21T02:11:47.717Z,101052.78
2023-03-21T02:14:29.080Z,101053.22
2023-03-21T02:17:11.401Z,101062.25
2023-03-21T02:20:00.691Z,101047.56
2023-03-21T02:23:01.334Z,101048.94
2023-03-21T02:25:53.344Z,101047.72
2023-03-21T02:28:27.212Z,101052.53
2023-03-21T02:31:14.506Z,101053.66
2023-03-21T02:34:07.730Z,101049.25
2023-03-21T02:36:51.732Z,101055.59
2023-03-21T02:39:27.360Z,101055.78
2023-03-21T02:42:04.437Z,101046.28
2023-03-21T02:44:43.574Z,101056.28
2023-03-21T02:47:53.522Z,101061.72
2023-03-21T02:50:27.463Z,101057.22
2023-03-21T02:52:58.634Z,101055.50
2023-03-21T02:55:31.420Z,101066.38
2023-03-21T02:58:12.307Z,101065.41
2023-03-21T03:00:46.072Z,101067.22
2023-03-21T03:03:33.680Z,101055.91
2023-03-21T03:06:08.554Z,101059.28
2023-03-21T03:09:01.413Z,101063.34
2023-03-21T03:11:32.524Z,101065.19
2023-03-21T03:14:53.020Z,101060.34
2023-03-21T03:17:24.279Z,101071.06
2023-03-21T03:20:16.151Z,101058.72
2023-03-21T03:22:53.980Z,101061.19
2023-03-21T03:25:41.723Z,101065.69
2023-03-21T03:28:15.029Z,101067.09
2023-03-21T03:30:57.102Z,101063.03
2023-03-21T03:33:35.309Z,101060.78
2023-03-21T03:36:06.935Z,101062.94
2023-03-21T03:38:39.806Z,101064.63
2023-03-21T03:41:14.679Z,101065.09
2023-03-21T03:43:54.922Z,101060.03
2023-03-21T03:46:31.739Z,101060.34
2023-03-21T03:49:03.316Z,101060.34
2023-03-21T03:51:36.953Z,101053.09
2023-03-21T03:54:15.565Z,101056.31
2023-03-21T03:56:46.858Z,101060.47
2023-03-21T03:59:19.453Z,101054.00
2023-03-21T04:02:08.033Z,101052.28
2023-03-21T04:04:37.569Z,101050.97
2023-03-21T04:07:06.407Z,101050.69
2023-03-21T04:09:44.229Z,101058.69
2023-03-21T04:12:16.875Z,101049.50
2023-03-21T04:15:09.551Z,101052.75
2023-03-21T04:17:40.516Z,101050.56
2023-03-21T04:20:15.085Z,101050.66
2023-03-21T04:22:44.926Z,101041.47
2023-03-21T04:25:19.010Z,101040.69
2023-03-21T04:27:58.089Z,101040.75
2023-03-21T04:30:45.040Z,101053.34
2023-03-21T04:33:25.843Z,101050.06
2023-03-21T04:35:59.048Z,101056.91
2023-03-21T04:38:30.909Z,101053.59
2023-03-21T04:41:02.994Z,101064.78
2023-03-21T04:43:33.187Z,101061.00
2023-03-21T04:46:01.372Z,101052.09
2023-03-21T04:48:29.944Z,101059.75
2023-03-21T04:51:00.651Z,101059.16
2023-03-21T04:53:30.572Z,101061.13
2023-03-21T04:55:58.738Z,101052.28
2023-03-21T04:58:27.037Z,101049.91
2023-03-21T05:00:57.391Z,101056.13
2023-03-21T05:03:25.665Z,101054.84
2023-03-21T05:05:53.806Z,101057.97
2023-03-21T05:08:22.232Z,101058.16
2023-03-21T05:10:50.401Z,101066.34
2023-03-21T05:13:18.937Z,101060.56
2023-03-21T05:15:47.260Z,101061.47
2023-03-21T05:18:24.737Z,101058.88
2023-03-21T05:21:04.437Z,101059.81
2023-03-21T05:23:38.203Z,101071.94
2023-03-21T05:26:08.095Z,101066.94
2023-03-21T05:28:44.576Z,101066.75
2023-03-21T05:31:15.813Z,101063.31
2023-03-21T05:33:46.856Z,101060.06
2023-03-21T05:36:19.404Z,101068.34
2023-03-21T05:38:47.686Z,101068.94
2023-03-21T05:41:19.355Z,101060.59
2023-03-21T05:43:48.574Z,101071.53
2023-03-21T05:46:18.384Z,101070.81
2023-03-21T05:48:48.417Z,101067.19
2023-03-21T05:51:18.942Z,101070.91
2023-03-21T05:53:48.445Z,101071.53
2023-03-21T05:56:17.689Z,101067.63
2023-03-21T05:58:55.685Z,101069.09
2023-03-21T06:01:25.478Z,101069.31
2023-03-21T06:04:04.097Z,101068.22
2023-03-21T06:06:32.487Z,101071.16
2023-03-21T06:09:02.284Z,101071.13
2023-03-21T06:11:34.563Z,101074.78
2023-03-21T06:14:24.230Z,101081.47
2023-03-21T06:17:15.878Z,101078.91
2023-03-21T06:19:51.359Z,101077.34
2023-03-21T06:22:25.401Z,101071.88
2023-03-21T06:24:53.893Z,101074.50
2023-03-21T06:27:22.062Z,101069.91
2023-03-21T06:29:55.688Z,101074.66
2023-03-21T06:32:24.695Z,101073.41
2023-03-21T06:34:59.515Z,101076.09
2023-03-21T06:37:28.038Z,101072.44
2023-03-21T06:39:56.403Z,101073.97
2023-03-21T06:42:25.750Z,101076.25
2023-03-21T06:44:59.962Z,101072.25
2023-03-21T06:47:28.882Z,101084.69
2023-03-21T06:49:59.193Z,101080.09
2023-03-21T06:52:27.346Z,101081.03
2023-03-21T06:54:55.538Z,101073.22
2023-03-21T06:57:23.693Z,101085.53
2023-03-21T06:59:52.203Z,101091.59
2023-03-21T07:02:22.646Z,101088.81
2023-03-21T07:05:10.982Z,101093.81
2023-03-21T07:07:39.537Z,101091.97
2023-03-21T07:10:10.721Z,101096.66
2023-03-21T07:12:47.452Z,101090.81
2023-03-21T07:15:38.316Z,101090.84
2023-03-21T07:18:07.977Z,101089.59
2023-03-21T07:20:38.929Z,101091.19
2023-03-21T07:23:07.335Z,101094.84
2023-03-21T07:25:36.006Z,101097.41
2023-03-21T07:28:09.028Z,101080.75
2023-03-21T07:30:37.857Z,101091.91
2023-03-21T07:33:07.094Z,101094.00
2023-03-21T07:35:37.596Z,101090.94
2023-03-21T07:38:07.828Z,101091.50
2023-03-21T07:40:36.398Z,101083.63
2023-03-21T07:43:04.930Z,101091.84
2023-03-21T07:45:35.962Z,101085.97
2023-03-21T07:48:09.640Z,101085.84
2023-03-21T07:50:39.663Z,101088.31
2023-03-21T07:53:08.511Z,101087.19
2023-03-21T07:55:37.038Z,101091.38
2023-03-21T07:58:06.122Z,101085.22
2023-03-21T08:00:34.729Z,101084.53
2023-03-21T08:03:02.964Z,101082.72
2023-03-21T08:05:36.194Z,101081.72
2023-03-21T08:08:07.092Z,101076.41
2023-03-21T08:10:36.013Z,101089.34
2023-03-21T08:13:04.771Z,101079.78
2023-03-21T08:15:32.975Z,101082.31
2023-03-21T08:18:01.782Z,101081.13
2023-03-21T08:20:29.998Z,101086.63
2023-03-21T08:22:58.197Z,101082.59
2023-03-21T08:25:27.788Z,101082.56
2023-03-21T08:27:55.929Z,101083.50
2023-03-21T08:30:27.295Z,101081.16
2023-03-21T08:33:00.858Z,101091.63
2023-03-21T08:35:30.217Z,101087.13
2023-03-21T08:37:58.507Z,101096.56
2023-03-21T08:40:27.975Z,101093.16
2023-03-21T08:42:56.222Z,101095.69
2023-03-21T08:45:25.386Z,101094.28
2023-03-21T08:47:54.141Z,101088.25
2023-03-21T08:50:25.034Z,101085.00
2023-03-21T08:52:53.416Z,101089.03
2023-03-21T08:55:21.561Z,101089.25
2023-03-21T08:57:51.037Z,101086.09
2023-03-21T09:00:20.719Z,101089.06
2023-03-21T09:02:51.495Z,101088.41
2023-03-21T09:05:19.974Z,101092.81
2023-03-21T09:07:53.051Z,101100.00
2023-03-21T09:10:23.326Z,101096.78
2023-03-21T09:12:54.814Z,101094.91
2023-03-21T09:15:24.914Z,101099.56
2023-03-21T09:17:54.245Z,101098.16
2023-03-21T09:20:26.516Z,101101.28
2023-03-21T09:22:55.300Z,101096.16
2023-03-21T09:25:24.639Z,101099.38
2023-03-21T09:27:54.459Z,101100.66
2023-03-21T09:30:24.866Z,101098.00
2023-03-21T09:32:55.925Z,101101.22
2023-03-21T09:35:27.078Z,101101.41
2023-03-21T09:37:58.995Z,101097.53
2023-03-21T09:40:41.379Z,101103.75
2023-03-21T09:43:25.037Z,101102.59
2023-03-21T09:46:00.110Z,101095.44
2023-03-21T09:48:39.596Z,101095.34
2023-03-21T09:51:18.000Z,101097.38
2023-03-21T09:53:50.026Z,101094.28
2023-03-21T09:56:19.125Z,101090.34
2023-03-21T09:58:53.152Z,101090.97
2023-03-21T10:01:29.855Z,101095.28
2023-03-21T10:04:01.332Z,101092.19
2023-03-21T10:06:31.917Z,101090.47
2023-03-21T10:09:07.330Z,101092.59
2023-03-21T10:11:44.340Z,101087.31
2023-03-21T10:14:20.257Z,101088.59
2023-03-21T10:16:52.488Z,101089.56
2023-03-21T10:19:21.193Z,101091.00
2023-03-21T10:22:06.954Z,101084.84
2023-03-21T10:24:35.985Z,101087.69
2023-03-21T10:27:05.799Z,101089.31
2023-03-21T10:29:43.296Z,101078.34
2023-03-21T10:32:14.796Z,101079.50
2023-03-21T10:34:47.026Z,101078.13
2023-03-21T10:37:16.784Z,101082.94
2023-03-21T10:39:47.604Z,101075.06
2023-03-21T10:42:21.430Z,101083.63
2023-03-21T10:44:52.743Z,101092.13
2023-03-21T10:47:23.060Z,101089.91
2023-03-21T10:50:06.821Z,101088.47
2023-03-21T10:52:37.168Z,101081.63
2023-03-21T10:55:16.558Z,101081.28
2023-03-21T10:57:46.055Z,101079.38
2023-03-21T11:00:22.535Z,101072.84
2023-03-21T11:02:52.709Z,101060.44
2023-03-21T11:05:25.478Z,101063.38
2023-03-21T11:08:00.679Z,101062.72
2023-03-21T11:10:31.168Z,101055.75
2023-03-21T11:13:04.919Z,101059.72
2023-03-21T11:15:42.581Z,101061.00
2023-03-21T11:18:20.125Z,101062.16
2023-03-21T11:20:53.926Z,101047.63
2023-03-21T11:23:26.972Z,101046.69
2023-03-21T11:25:55.851Z,101036.34
2023-03-21T11:28:33.261Z,101036.47
2023-03-21T11:31:04.591Z,101029.72
2023-03-21T11:33:36.615Z,101040.16
2023-03-21T11:36:07.673Z,101030.56
2023-03-21T11:38:39.523Z,101028.38
2023-03-21T11:41:08.828Z,101025.75
2023-03-21T11:43:38.312Z,101015.75
2023-03-21T11:46:10.211Z,101008.75
2023-03-21T11:48:42.177Z,100999.78
2023-03-21T11:51:21.408Z,101015.63
2023-03-21T11:53:58.392Z,101016.56
2023-03-21T11:56:29.460Z,101022.53
2023-03-21T11:59:19.582Z,101016.50
2023-03-21T12:02:05.749Z,101016.34
2023-03-21T12:04:41.906Z,101021.16
2023-03-21T12:07:41.543Z,101018.19
2023-03-21T12:10:33.991Z,101008.16
2023-03-21T12:13:14.440Z,101010.41
2023-03-21T12:15:53.795Z,101006.34
2023-03-21T12:18:41.259Z,101007.38
2023-03-21T12:21:17.748Z,101002.81
2023-03-21T12:24:00.256Z,101005.31
2023-03-21T12:26:32.056Z,101006.47
2023-03-21T12:29:18.256Z,101005.22
2023-03-21T12:31:59.249Z,101005.88
2023-03-21T12:34:51.037Z,100999.50
2023-03-21T12:37:27.110Z,101003.41
2023-03-21T12:40:01.447Z,100999.88
2023-03-21T12:42:47.326Z,101003.81
2023-03-21T12:45:21.454Z,100999.88
2023-03-21T12:47:55.728Z,100996.44
2023-03-21T12:50:28.728Z,100992.94
2023-03-21T12:53:00.876Z,100992.00
2023-03-21T12:55:32.701Z,100987.56
2023-03-21T12:58:05.895Z,100981.75
2023-03-21T13:00:39.736Z,100972.66
2023-03-21T13:03:13.563Z,100970.56
2023-03-21T13:05:47.641Z,100969.22
2023-03-21T13:08:22.398Z,100965.25
2023-03-21T13:10:50.685Z,100961.56
2023-03-21T13:13:27.164Z,100962.00
2023-03-21T13:16:03.818Z,100958.59
2023-03-21T13:18:50.172Z,100954.50
2023-03-21T13:21:26.978Z,100955.84
2023-03-21T13:24:03.097Z,100946.63
2023-03-21T13:26:39.769Z,100940.94
2023-03-21T13:29:15.974Z,100929.75
2023-03-21T13:31:52.518Z,100929.63
2023-03-21T13:34:23.454Z,100923.19
2023-03-21T13:36:53.740Z,100921.78
2023-03-21T13:39:27.512Z,100929.84
2023-03-21T13:41:56.635Z,100924.88
2023-03-21T13:44:33.156Z,100927.47
2023-03-21T13:47:03.456Z,100922.69
2023-03-21T13:49:35.100Z,100906.97
2023-03-21T13:52:28.190Z,100918.13
2023-03-21T13:54:57.548Z,100910.91
2023-03-21T13:57:39.731Z,100920.03
2023-03-21T14:00:24.153Z,100920.22
2023-03-21T14:02:59.690Z,100908.09
2023-03-21T14:05:28.975Z,100906.84
2023-03-21T14:08:12.695Z,100908.09
2023-03-21T14:10:46.573Z,100906.69
2023-03-21T14:13:18.300Z,100902.78
2023-03-21T14:15:55.172Z,100906.56
2023-03-21T14:18:52.450Z,100908.09
2023-03-21T14:21:23.720Z,100902.09
2023-03-21T14:24:02.284Z,100888.16
2023-03-21T14:26:34.305Z,100883.06
2023-03-21T14:29:09.266Z,100885.91
2023-03-21T14:31:41.163Z,100883.41
2023-03-21T14:34:11.404Z,100880.28
2023-03-21T14:36:45.784Z,100878.13
2023-03-21T14:39:24.061Z,100880.69
2023-03-21T14:41:55.470Z,100872.44
2023-03-21T14:44:28.908Z,100876.59
2023-03-21T14:47:02.279Z,100871.47
2023-03-21T14:49:32.554Z,100860.03
2023-03-21T14:52:06.726Z,100870.28
2023-03-21T14:54:38.209Z,100858.13
2023-03-21T14:57:11.337Z,100858.69
2023-03-21T14:59:42.163Z,100849.94
2023-03-21T15:02:18.062Z,100844.28
2023-03-21T15:04:48.056Z,100843.03
2023-03-21T15:07:26.020Z,100834.56
2023-03-21T15:09:57.364Z,100830.28
2023-03-21T15:12:25.531Z,100828.97
2023-03-21T15:14:55.204Z,100822.16
2023-03-21T15:17:25.472Z,100816.19
2023-03-21T15:19:53.627Z,100814.72
2023-03-21T15:22:30.288Z,100822.72
2023-03-21T15:25:03.529Z,100814.81
2023-03-21T15:27:36.242Z,100810.72
2023-03-21T15:30:05.555Z,100822.22
2023-03-21T15:32:37.513Z,100824.81
2023-03-21T15:35:09.185Z,100816.66
2023-03-21T15:37:38.533Z,100818.19
2023-03-21T15:40:19.334Z,100814.97
2023-03-21T15:42:47.587Z,100812.84
2023-03-21T15:45:21.315Z,100806.50
2023-03-21T15:47:55.572Z,100811.19
2023-03-21T15:50:29.445Z,100808.50
2023-03-21T15:53:01.201Z,100805.56
2023-03-21T15:55:35.348Z,100799.84
2023-03-21T15:58:07.277Z,100803.50
2023-03-21T16:00:40.748Z,100806.66
2023-03-21T16:03:17.590Z,100805.56
2023-03-21T16:06:04.374Z,100799.31
2023-03-21T16:08:35.829Z,100799.53
2023-03-21T16:11:14.956Z,100801.44
2023-03-21T16:13:43.172Z,100804.19
2023-03-21T16:16:17.860Z,100802.75
2023-03-21T16:18:46.086Z,100801.66
2023-03-21T16:21:16.039Z,100804.03
2023-03-21T16:23:44.177Z,100802.03
2023-03-21T16:26:16.479Z,100802.75
2023-03-21T16:28:45.466Z,100813.03
2023-03-21T16:31:16.196Z,100798.63
2023-03-21T16:33:44.873Z,100787.94
2023-03-21T16:36:15.501Z,100789.47
2023-03-21T16:38:43.662Z,100808.09
2023-03-21T16:41:14.288Z,100795.19
2023-03-21T16:43:43.834Z,100806.28
2023-03-21T16:46:14.233Z,100797.88
2023-03-21T16:48:43.308Z,100807.63
2023-03-21T16:51:14.739Z,100809.81
2023-03-21T16:53:42.998Z,100805.28
2023-03-21T16:56:18.016Z,100794.81
2023-03-21T16:58:46.404Z,100799.75
2023-03-21T17:01:16.472Z,100788.03
2023-03-21T17:03:44.632Z,100783.06
2023-03-21T17:06:17.519Z,100789.72
2023-03-21T17:08:46.213Z,100794.56
2023-03-21T17:11:19.999Z,100786.69
2023-03-21T17:13:48.865Z,100787.81
2023-03-21T17:16:20.728Z,100777.75
2023-03-21T17:18:49.135Z,100788.97
2023-03-21T17:21:19.776Z,100785.75
2023-03-21T17:23:48.481Z,100785.06
2023-03-21T17:26:21.497Z,100785.38
2023-03-21T17:28:50.546Z,100778.72
2023-03-21T17:31:20.544Z,100786.50
2023-03-21T17:33:49.420Z,100780.72
2023-03-21T17:36:20.252Z,100778.81
2023-03-21T17:38:48.534Z,100778.84
2023-03-21T17:41:19.703Z,100776.09
2023-03-21T17:43:48.093Z,100787.66
2023-03-21T17:46:19.711Z,100781.19
2023-03-21T17:48:47.909Z,100775.50
2023-03-21T17:51:17.638Z,100766.34
2023-03-21T17:53:48.296Z,100775.72
2023-03-21T17:56:21.148Z,100766.88
2023-03-21T17:58:49.901Z,100774.94
2023-03-21T18:01:18.075Z,100772.94
2023-03-21T18:03:46.392Z,100774.00
2023-03-21T18:06:17.150Z,100774.13
2023-03-21T18:08:46.069Z,100772.88
2023-03-21T18:11:15.588Z,100766.44
2023-03-21T18:13:45.693Z,100773.25
2023-03-21T18:16:16.040Z,100772.69
2023-03-21T18:18:46.560Z,100771.63
2023-03-21T18:21:18.965Z,100769.16
2023-03-21T18:23:48.608Z,100768.28
2023-03-21T18:26:22.891Z,100770.78
2023-03-21T18:29:43.896Z,100765.84
2023-03-21T18:31:43.868Z,100767.16
2023-03-21T18:34:15.365Z,100752.47
2023-03-21T18:36:43.582Z,100755.44
2023-03-21T18:39:13.224Z,100750.56
2023-03-21T18:41:41.383Z,100757.69
2023-03-21T18:44:22.606Z,100743.66
2023-03-21T18:46:53.204Z,100748.97
2023-03-21T18:50:02.110Z,100744.03
2023-03-21T18:52:10.022Z,100736.22
2023-03-21T18:54:38.583Z,100747.88
2023-03-21T18:59:59.092Z,100740.88
2023-03-21T19:02:27.436Z,100735.38
2023-03-21T19:04:57.868Z,100737.56
2023-03-21T19:07:26.405Z,100736.03
2023-03-21T19:10:16.042Z,100723.31
2023-03-21T19:12:43.256Z,100732.31
2023-03-21T19:15:13.292Z,100721.22
2023-03-21T19:20:30.013Z,100716.13
2023-03-21T19:22:58.209Z,100715.00
2023-03-21T19:25:26.573Z,100713.47
2023-03-21T19:27:55.041Z,100717.56
2023-03-21T19:30:24.750Z,100711.38
2023-03-21T19:32:52.891Z,100717.19
2023-03-21T19:35:21.791Z,100709.69
2023-03-21T19:37:50.030Z,100711.22
2023-03-21T19:40:19.820Z,100706.91
2023-03-21T19:42:47.990Z,100711.13
2023-03-21T19:45:16.338Z,100711.38
2023-03-21T19:47:46.273Z,100706.47
2023-03-21T19:53:02.563Z,100703.06
2023-03-21T19:55:30.893Z,100708.16
2023-03-21T19:57:59.431Z,100703.22
2023-03-21T20:00:27.921Z,100700.28
2023-03-21T20:02:57.402Z,100699.84
2023-03-21T20:05:26.123Z,100699.81
2023-03-21T20:07:57.210Z,100706.84
2023-03-21T20:10:27.546Z,100697.75
2023-03-21T20:12:55.815Z,100697.94
2023-03-21T20:15:26.834Z,100702.03
2023-03-21T20:17:58.668Z,100702.66
2023-03-21T20:20:27.013Z,100701.13
2023-03-21T20:23:06.692Z,100704.81
2023-03-21T20:25:36.472Z,100704.81
2023-03-21T20:28:25.825Z,100708.69
2023-03-21T20:30:56.991Z,100709.31
2023-03-21T20:33:28.030Z,100705.66
2023-03-21T20:38:47.634Z,100696.06
2023-03-21T20:41:16.044Z,100703.75
2023-03-21T20:46:32.862Z,100702.50
2023-03-21T20:49:02.380Z,100704.03
2023-03-21T20:52:40.853Z,100704.81
2023-03-21T20:54:18.764Z,100708.22
2023-03-21T20:56:47.847Z,100707.38
2023-03-21T20:59:25.558Z,100711.81
2023-03-21T21:01:54.733Z,100722.59
2023-03-21T21:04:42.826Z,100709.00
2023-03-21T21:07:16.037Z,100707.94
2023-03-21T21:09:45.039Z,100706.41
2023-03-21T21:12:14.980Z,100705.72
2023-03-21T21:14:43.672Z,100704.19
2023-03-21T21:17:46.946Z,100710.19
2023-03-21T21:20:02.238Z,100702.75
2023-03-21T21:22:30.436Z,100704.69
2023-03-21T21:24:58.640Z,100706.56
2023-03-21T21:27:26.837Z,100704.88
2023-03-21T21:29:54.960Z,100701.53
2023-03-21T21:32:23.424Z,100701.25
2023-03-21T21:34:52.241Z,100712.28
2023-03-21T21:37:22.682Z,100708.66
2023-03-21T21:39:50.923Z,100715.44
2023-03-21T21:42:19.370Z,100719.31
2023-03-21T21:44:47.592Z,100725.69
2023-03-21T21:47:15.913Z,100723.44
2023-03-21T21:49:44.079Z,100730.91
2023-03-21T21:52:13.635Z,100727.41
2023-03-21T21:54:45.723Z,100719.84
2023-03-21T21:57:14.570Z,100726.56
2023-03-21T21:59:42.870Z,100720.31
2023-03-21T22:02:13.947Z,100720.31
2023-03-21T22:04:42.146Z,100718.47
2023-03-21T22:07:14.353Z,100723.69
2023-03-21T22:09:45.583Z,100717.22
2023-03-21T22:12:13.713Z,100717.16
2023-03-21T22:14:41.851Z,100717.63
2023-03-21T22:17:10.098Z,100719.22
2023-03-21T22:19:40.237Z,100728.25
2023-03-21T22:22:08.688Z,100726.69
2023-03-21T22:24:37.485Z,100733.88
2023-03-21T22:27:07.013Z,100727.34
2023-03-21T22:29:35.333Z,100733.69
2023-03-21T22:32:03.574Z,100736.06
2023-03-21T22:34:32.289Z,100730.06
2023-03-21T22:37:02.542Z,100726.56
2023-03-21T22:39:31.081Z,100730.41
2023-03-21T22:42:00.921Z,100727.22
2023-03-21T22:44:34.886Z,100730.75
2023-03-21T22:47:03.524Z,100727.53
2023-03-21T22:49:32.787Z,100730.22
2023-03-21T22:52:01.548Z,100738.78
2023-03-21T22:54:29.796Z,100738.63
2023-03-21T22:56:58.089Z,100741.72
2023-03-21T22:59:26.827Z,100744.63
2023-03-21T23:01:56.691Z,100738.06
2023-03-21T23:04:26.026Z,100736.47
2023-03-21T23:06:54.693Z,100743.38
2023-03-21T23:09:22.985Z,100744.72
2023-03-21T23:11:51.802Z,100752.03
2023-03-21T23:14:20.878Z,100739.84
2023-03-21T23:16:50.661Z,100747.53
2023-03-21T23:19:21.173Z,100741.53
2023-03-21T23:21:50.128Z,100746.50
2023-03-21T23:24:18.296Z,100743.75
2023-03-21T23:26:46.472Z,100743.00
2023-03-21T23:29:14.816Z,100752.66
2023-03-21T23:31:43.021Z,100748.88
2023-03-21T23:34:11.306Z,100748.38
2023-03-21T23:36:40.961Z,100746.00
2023-03-21T23:39:09.438Z,100750.06
2023-03-21T23:41:37.776Z,100761.09
2023-03-21T23:44:06.317Z,100756.69
2023-03-21T23:46:34.557Z,100756.72
2023-03-21T23:49:03.309Z,100753.34
2023-03-21T23:51:31.463Z,100752.16
2023-03-21T23:54:01.098Z,100753.41
2023-03-21T23:56:29.398Z,100748.03
2023-03-21T23:58:58.249Z,100750.44
